Time;durP1;ratioP1;P1;durP2;ratioP2;P2;SDS_P1;SDS_P2;PMS_P1;PMS_P2;Temp;Humidity;BMP_temperature;BMP_pressure;BME280_temperature;BME280_humidity;BME280_pressure;Samples;Min_cycle;Max_cycle;Signal;HPM_P1;HPM_P2
2023/06/05 00:00:40;;;;;;;1.30;1.20;;;;;;;16.48;36.72;99106.25;4922368;28;40614;-75
2023/06/05 00:03:09;;;;;;;1.37;1.27;;;;;;;16.46;36.80;99104.69;4920438;28;42661;-76
2023/06/05 00:05:36;;;;;;;0.97;0.97;;;;;;;16.41;36.88;99101.56;4929451;28;42596;-76
2023/06/05 00:08:04;;;;;;;1.80;1.50;;;;;;;16.38;36.99;99110.69;4932512;28;42649;-75
2023/06/05 00:10:31;;;;;;;2.10;1.23;;;;;;;16.31;37.54;99104.16;4933119;29;39982;-75
2023/06/05 00:12:59;;;;;;;1.80;1.57;;;;;;;16.27;37.76;99109.88;4915263;29;40609;-75
2023/06/05 00:15:26;;;;;;;1.37;1.27;;;;;;;16.22;37.52;99104.03;4931293;29;43136;-76
2023/06/05 00:17:55;;;;;;;1.70;1.40;;;;;;;16.19;37.57;99106.97;4932579;29;41154;-76
2023/06/05 00:20:24;;;;;;;1.70;1.17;;;;;;;16.14;37.46;99108.19;4934573;29;39909;-75
2023/06/05 00:22:51;;;;;;;1.77;1.37;;;;;;;16.12;37.71;99104.78;4934006;29;42707;-75
2023/06/05 00:25:19;;;;;;;2.27;1.40;;;;;;;16.07;37.55;99104.28;4933961;29;42701;-75
2023/06/05 00:27:47;;;;;;;1.90;1.60;;;;;;;16.02;37.52;99101.16;4933961;29;42213;-75
2023/06/05 00:30:14;;;;;;;1.30;1.10;;;;;;;15.97;37.47;99103.34;4935497;29;41007;-75
2023/06/05 00:32:42;;;;;;;1.63;1.53;;;;;;;15.93;37.66;99103.75;4918159;29;41707;-75
2023/06/05 00:35:10;;;;;;;1.40;1.30;;;;;;;15.88;37.19;99106.78;4917825;29;42782;-75
2023/06/05 00:37:40;;;;;;;2.60;1.10;;;;;;;15.84;37.48;99097.28;4917876;29;40876;-75
2023/06/05 00:40:08;;;;;;;1.40;1.30;;;;;;;15.80;37.24;99096.72;4933891;29;40972;-75
2023/06/05 00:42:36;;;;;;;1.73;1.27;;;;;;;15.75;37.40;99098.88;4934734;29;41636;-75
2023/06/05 00:45:04;;;;;;;1.37;1.13;;;;;;;15.71;37.10;99096.56;4917728;29;42044;-75
2023/06/05 00:47:35;;;;;;;2.47;1.40;;;;;;;15.66;37.28;99101.44;4933275;29;41043;-75
2023/06/05 00:50:03;;;;;;;2.47;1.20;;;;;;;15.63;37.06;99099.00;4917829;29;39952;-75
2023/06/05 00:55:21;;;;;;;2.10;1.33;;;;;;;15.54;37.56;99105.06;4915995;29;41801;-76
2023/06/05 00:57:49;;;;;;;1.40;1.03;;;;;;;15.50;37.74;99098.25;4916519;29;41151;-76
2023/06/05 01:00:18;;;;;;;2.07;1.00;;;;;;;15.44;37.40;99108.47;4916835;29;39917;-74
2023/06/05 01:02:45;;;;;;;2.20;1.07;;;;;;;15.40;37.39;99103.47;4932302;29;42782;-76
2023/06/05 01:05:13;;;;;;;1.40;1.30;;;;;;;15.37;37.82;99098.38;4933717;29;43778;-74
2023/06/05 01:07:42;;;;;;;1.60;1.20;;;;;;;15.33;37.72;99100.41;4932138;29;42830;-77
2023/06/05 01:10:11;;;;;;;1.40;1.23;;;;;;;15.29;37.82;99096.31;4932373;29;40017;-74
2023/06/05 01:12:47;;;;;;;1.30;1.17;;;;;;;15.24;38.10;99098.47;4932077;29;41798;-75
2023/06/05 01:15:18;;;;;;;2.03;1.17;;;;;;;15.22;38.33;99096.88;4916606;29;41701;-75
2023/06/05 01:17:47;;;;;;;1.70;1.10;;;;;;;15.18;38.75;99096.28;4932114;29;42350;-75
2023/06/05 01:20:15;;;;;;;1.73;1.23;;;;;;;15.13;38.49;99087.78;4932417;29;40903;-75
2023/06/05 01:22:52;;;;;;;1.83;1.07;;;;;;;15.14;38.75;99092.16;4932119;29;41868;-75
2023/06/05 01:25:21;;;;;;;1.30;1.20;;;;;;;15.10;38.98;99093.34;4931349;29;42754;-75
2023/06/05 01:27:56;;;;;;;1.57;1.20;;;;;;;15.07;38.92;99093.59;4933053;29;41190;-74
2023/06/05 01:30:30;;;;;;;2.57;1.47;;;;;;;15.03;39.14;99089.47;4917512;29;38909;-75
2023/06/05 01:33:02;;;;;;;2.03;1.33;;;;;;;15.02;39.24;99103.78;4932825;29;42665;-74
2023/06/05 01:35:33;;;;;;;1.50;1.27;;;;;;;15.00;39.25;99095.03;4917280;29;41912;-74
2023/06/05 01:38:05;;;;;;;1.27;1.17;;;;;;;14.96;39.51;99089.06;4916883;29;42597;-74
2023/06/05 01:40:35;;;;;;;1.93;1.63;;;;;;;14.93;40.04;99088.47;4930143;29;41845;-74
2023/06/05 01:43:05;;;;;;;1.43;1.20;;;;;;;14.90;40.17;99078.03;4932879;29;41709;-75
2023/06/05 01:45:33;;;;;;;1.30;1.20;;;;;;;14.86;39.66;99082.75;4932865;29;42731;-75
2023/06/05 01:48:03;;;;;;;2.47;1.30;;;;;;;14.85;39.42;99077.53;4932709;29;42300;-75
2023/06/05 01:50:36;;;;;;;1.43;1.20;;;;;;;14.81;40.24;99084.09;4932848;29;39313;-74
2023/06/05 01:53:07;;;;;;;1.47;1.30;;;;;;;14.77;40.04;99079.94;4931005;29;40706;-75
2023/06/05 01:55:38;;;;;;;1.20;1.10;;;;;;;14.73;39.88;99080.16;4915661;29;42848;-75
2023/06/05 01:58:07;;;;;;;2.10;1.13;;;;;;;14.68;40.00;99085.00;4931710;29;43020;-75
2023/06/05 02:00:36;;;;;;;1.53;1.10;;;;;;;14.65;40.07;99079.91;4931854;29;40213;-75
2023/06/05 02:03:05;;;;;;;1.60;1.20;;;;;;;14.61;40.24;99083.75;4932737;29;41206;-74
2023/06/05 02:05:33;;;;;;;1.70;1.30;;;;;;;14.57;40.01;99082.31;4915667;29;41409;-75
2023/06/05 02:08:04;;;;;;;1.60;1.30;;;;;;;14.52;40.89;99079.13;4915574;29;42308;-75
2023/06/05 02:10:34;;;;;;;4.70;1.30;;;;;;;14.50;41.13;99080.19;4915749;29;39253;-75
2023/06/05 02:13:04;;;;;;;1.50;1.20;;;;;;;14.41;40.99;99060.44;4915356;29;42385;-75
2023/06/05 02:15:34;;;;;;;1.87;1.40;;;;;;;14.43;41.29;99070.97;4915992;29;42838;-74
2023/06/05 02:18:04;;;;;;;1.87;1.30;;;;;;;14.38;41.22;99068.63;4915849;29;42397;-75
2023/06/05 02:20:34;;;;;;;1.20;1.10;;;;;;;14.36;41.25;99067.88;4931600;29;40091;-74
2023/06/05 02:23:02;;;;;;;1.77;1.17;;;;;;;14.28;41.68;99062.28;4932992;29;42420;-75
2023/06/05 02:25:30;;;;;;;1.67;1.53;;;;;;;14.26;41.04;99067.72;4932251;29;42571;-74
2023/06/05 02:27:59;;;;;;;2.17;1.03;;;;;;;14.15;41.51;99058.81;4917490;29;41180;-74
2023/06/05 02:30:27;;;;;;;1.70;1.20;;;;;;;14.20;41.46;99067.34;4920253;29;39859;-74
2023/06/05 02:32:56;;;;;;;1.57;1.37;;;;;;;14.18;41.48;99066.59;4936846;29;42897;-74
2023/06/05 02:35:25;;;;;;;1.20;1.10;;;;;;;14.14;41.71;99062.44;4935635;29;43671;-75
2023/06/05 02:37:53;;;;;;;2.93;1.50;;;;;;;14.11;41.71;99062.66;4919755;29;41157;-75
2023/06/05 02:40:21;;;;;;;1.47;1.30;;;;;;;14.08;42.25;99062.91;4935661;29;40993;-75
2023/06/05 02:42:49;;;;;;;1.73;1.50;;;;;;;14.05;42.02;99055.13;4935630;29;42678;-75
2023/06/05 02:45:18;;;;;;;1.27;1.10;;;;;;;14.01;42.09;99058.03;4919511;29;41853;-76
2023/06/05 02:47:46;;;;;;;1.47;1.20;;;;;;;13.98;42.41;99055.56;4936559;29;42374;-75
2023/06/05 02:50:13;;;;;;;2.60;1.40;;;;;;;13.96;42.21;99054.00;4935392;29;38980;-76
2023/06/05 02:52:46;;;;;;;1.47;1.10;;;;;;;13.91;42.26;99046.34;4917565;29;41378;-76
2023/06/05 02:55:24;;;;;;;1.30;1.13;;;;;;;13.90;41.95;99049.13;4931582;29;43707;-76
2023/06/05 02:57:57;;;;;;;1.67;1.40;;;;;;;13.86;41.76;99059.13;4918309;29;41503;-76
2023/06/05 03:00:32;;;;;;;3.27;1.37;;;;;;;13.83;41.92;99059.38;4931657;29;40051;-76
2023/06/05 03:03:00;;;;;;;1.33;1.13;;;;;;;13.80;42.02;99056.94;4918257;29;40329;-76
2023/06/05 03:05:32;;;;;;;1.40;1.30;;;;;;;13.70;42.00;99047.91;4918618;29;42664;-76
2023/06/05 03:08:08;;;;;;;1.33;1.23;;;;;;;13.78;41.85;99055.34;4918458;29;41044;-76
2023/06/05 03:10:36;;;;;;;1.30;1.20;;;;;;;13.72;42.12;99051.31;4918204;29;39998;-76
2023/06/05 03:13:04;;;;;;;2.83;1.73;;;;;;;13.71;42.01;99060.25;4917463;29;40954;-76
2023/06/05 03:15:36;;;;;;;1.77;1.20;;;;;;;13.69;41.87;99061.34;4917901;29;41331;-76
2023/06/05 03:18:06;;;;;;;1.23;1.13;;;;;;;13.69;41.85;99061.34;4917727;29;41217;-76
2023/06/05 03:20:34;;;;;;;1.97;1.30;;;;;;;13.67;41.69;99064.09;4934050;29;40197;-76
2023/06/05 03:23:02;;;;;;;1.47;1.20;;;;;;;13.66;41.80;99063.25;4934450;29;41375;-75
2023/06/05 03:25:30;;;;;;;1.47;1.27;;;;;;;13.64;41.85;99064.31;4934719;29;41617;-75
2023/06/05 03:27:59;;;;;;;1.27;1.17;;;;;;;13.63;42.15;99067.94;4918779;29;42235;-75
2023/06/05 03:30:29;;;;;;;1.73;1.30;;;;;;;13.62;42.43;99066.22;4919056;29;40203;-75
2023/06/05 03:33:01;;;;;;;1.50;1.40;;;;;;;13.61;42.28;99062.72;4918842;29;40868;-76
2023/06/05 03:35:32;;;;;;;1.37;1.27;;;;;;;13.60;42.57;99060.16;4933196;29;43801;-75
2023/06/05 03:38:04;;;;;;;1.67;1.33;;;;;;;13.61;42.72;99053.88;4918712;29;42458;-76
2023/06/05 03:40:31;;;;;;;2.33;1.40;;;;;;;13.60;42.39;99057.50;4933725;29;40053;-75
2023/06/05 03:42:59;;;;;;;2.00;1.40;;;;;;;13.60;42.76;99062.81;4934444;29;41489;-75
2023/06/05 03:45:28;;;;;;;1.67;1.57;;;;;;;13.64;42.59;99059.84;4934575;29;42891;-75
2023/06/05 03:47:59;;;;;;;1.67;1.20;;;;;;;13.67;42.80;99064.09;4918426;29;42802;-75
2023/06/05 03:50:30;;;;;;;1.40;1.20;;;;;;;13.70;42.31;99063.88;4919194;29;40047;-76
2023/06/05 03:53:02;;;;;;;0.80;0.80;;;;;;;13.73;42.74;99062.78;4917073;29;41749;-76
2023/06/05 03:55:40;;;;;;;1.37;1.10;;;;;;;13.72;42.58;99066.44;4930270;29;42826;-74
2023/06/05 03:58:13;;;;;;;2.60;1.27;;;;;;;13.82;42.67;99080.78;4933404;29;42330;-75
2023/06/05 04:00:42;;;;;;;2.23;1.37;;;;;;;13.84;42.81;99074.38;4917957;29;39389;-74
2023/06/05 04:03:10;;;;;;;1.50;1.40;;;;;;;13.86;42.68;99075.09;4917325;29;41709;-75
2023/06/05 04:05:40;;;;;;;1.33;1.20;;;;;;;13.94;42.36;99074.56;4917567;29;42874;-75
2023/06/05 04:08:10;;;;;;;2.00;1.27;;;;;;;13.99;42.32;99083.06;4934207;29;42380;-75
2023/06/05 04:10:38;;;;;;;1.73;1.20;;;;;;;14.02;42.41;99077.50;4933301;29;41725;-75
2023/06/05 04:13:06;;;;;;;1.70;1.10;;;;;;;14.07;42.04;99085.19;4932486;29;41836;-75
2023/06/05 04:15:36;;;;;;;1.83;1.40;;;;;;;14.06;42.65;99070.16;4917614;29;41629;-75
2023/06/05 04:18:05;;;;;;;1.23;1.13;;;;;;;14.20;42.51;99078.84;4932988;29;42268;-75
2023/06/05 04:20:33;;;;;;;1.27;1.03;;;;;;;14.31;42.12;99080.72;4917530;29;38892;-75
2023/06/05 04:23:02;;;;;;;1.43;1.20;;;;;;;14.38;42.03;99089.94;4933170;29;42346;-75
2023/06/05 04:25:32;;;;;;;1.60;1.17;;;;;;;14.46;42.16;99084.94;4918408;29;41797;-75
2023/06/05 04:27:59;;;;;;;1.20;1.10;;;;;;;14.49;42.04;99078.50;4917942;29;42567;-75
2023/06/05 04:30:29;;;;;;;1.33;1.23;;;;;;;14.54;41.92;99061.22;4918263;29;38654;-74
2023/06/05 04:32:59;;;;;;;1.10;1.00;;;;;;;14.72;42.07;99086.47;4918035;29;40532;-75
2023/06/05 04:35:29;;;;;;;1.70;1.47;;;;;;;14.83;41.74;99083.00;4933972;29;42785;-75
2023/06/05 04:37:56;;;;;;;1.70;1.43;;;;;;;14.92;42.05;99081.44;4933478;29;41638;-74
2023/06/05 04:40:26;;;;;;;1.60;1.50;;;;;;;15.01;41.73;99080.72;4918008;29;39040;-74
2023/06/05 04:42:54;;;;;;;1.63;1.27;;;;;;;15.09;41.81;99078.31;4933960;29;41669;-75
2023/06/05 04:45:25;;;;;;;2.00;1.37;;;;;;;15.19;41.91;99090.00;4917631;29;41725;-75
2023/06/05 04:47:53;;;;;;;1.57;1.20;;;;;;;15.27;41.90;99084.91;4933633;29;43670;-75
2023/06/05 04:50:26;;;;;;;1.63;1.17;;;;;;;15.38;41.74;99084.91;4917560;29;39746;-75
2023/06/05 04:52:57;;;;;;;1.40;1.30;;;;;;;15.48;41.86;99089.50;4916743;29;40751;-75
2023/06/05 04:55:26;;;;;;;2.90;1.37;;;;;;;15.56;41.68;99087.13;4933594;29;43679;-76
2023/06/05 04:58:00;;;;;;;2.17;1.40;;;;;;;15.67;41.55;99085.31;4931840;29;42423;-75
2023/06/05 05:00:28;;;;;;;1.73;1.50;;;;;;;15.79;41.69;99083.47;4929779;29;41844;-75
2023/06/05 05:02:56;;;;;;;1.87;1.67;;;;;;;15.90;41.43;99093.28;4916439;29;41687;-76
2023/06/05 05:05:24;;;;;;;1.37;1.10;;;;;;;16.00;41.20;99092.44;4932554;29;43786;-75
2023/06/05 05:07:55;;;;;;;1.77;1.37;;;;;;;16.12;41.17;99088.75;4932503;29;41654;-75
2023/06/05 05:10:23;;;;;;;1.73;1.50;;;;;;;16.23;41.48;99087.88;4916721;29;39143;-76
2023/06/05 05:12:52;;;;;;;1.83;1.37;;;;;;;16.36;41.60;99087.72;4932296;29;41696;-75
2023/06/05 05:15:21;;;;;;;3.03;1.60;;;;;;;16.19;41.40;99050.84;4932307;29;42957;-76
2023/06/05 05:17:51;;;;;;;3.73;1.60;;;;;;;16.60;41.54;99095.53;4932333;29;43171;-75
2023/06/05 05:20:20;;;;;;;2.07;1.70;;;;;;;16.70;41.51;99091.13;4916525;29;40920;-76
2023/06/05 05:22:48;;;;;;;1.97;1.60;;;;;;;16.78;41.86;99089.53;4915959;29;40855;-75
2023/06/05 05:25:16;;;;;;;2.23;1.60;;;;;;;16.94;41.16;99090.91;4917351;29;41713;-76
2023/06/05 05:27:44;;;;;;;2.37;1.73;;;;;;;17.07;41.34;99097.75;4933203;29;41968;-80
2023/06/05 05:30:15;;;;;;;1.83;1.73;;;;;;;17.16;41.07;99088.09;4915293;29;38988;-82
2023/06/05 05:32:43;;;;;;;2.37;1.53;;;;;;;17.33;40.89;99083.94;4916426;29;40562;-80
2023/06/05 05:35:12;;;;;;;1.90;1.57;;;;;;;17.46;40.80;99101.50;4933174;29;43963;-79
2023/06/05 05:37:40;;;;;;;1.80;1.43;;;;;;;17.50;40.42;99086.88;4934376;28;42944;-82
2023/06/05 05:40:09;;;;;;;2.60;1.40;;;;;;;17.71;40.29;99102.91;4917891;29;38907;-76
2023/06/05 05:42:37;;;;;;;2.93;1.43;;;;;;;17.85;39.77;99107.91;4932792;28;41625;-78
2023/06/05 05:45:06;;;;;;;3.00;1.40;;;;;;;17.97;40.12;99111.31;4933391;29;42802;-77
2023/06/05 05:47:35;;;;;;;2.90;1.70;;;;;;;18.08;39.64;99111.22;4917160;28;41517;-80
2023/06/05 05:50:03;;;;;;;2.40;1.50;;;;;;;18.22;39.92;99116.19;4934993;29;40868;-79
2023/06/05 05:52:31;;;;;;;1.50;1.40;;;;;;;18.31;38.75;99103.78;4933185;28;41516;-82
2023/06/05 05:54:59;;;;;;;1.93;1.73;;;;;;;18.51;38.98;99118.94;4932372;29;43261;-81
2023/06/05 05:57:27;;;;;;;2.37;1.77;;;;;;;18.67;38.22;99121.06;4933742;29;43167;-83
2023/06/05 05:59:56;;;;;;;2.13;1.70;;;;;;;18.85;38.64;99121.22;4916727;29;39109;-81
2023/06/05 06:02:23;;;;;;;3.17;2.00;;;;;;;18.95;38.35;99112.19;4915443;29;41034;-82
2023/06/05 06:04:53;;;;;;;2.10;1.87;;;;;;;19.09;37.76;99127.00;4931991;28;41740;-81
2023/06/05 06:07:20;;;;;;;1.90;1.50;;;;;;;19.19;37.57;99116.25;4916175;29;40953;-81
2023/06/05 06:09:48;;;;;;;3.67;1.80;;;;;;;19.37;37.62;99122.59;4933123;29;40443;-79
2023/06/05 06:12:16;;;;;;;2.00;1.43;;;;;;;19.48;37.47;99118.88;4931754;29;41667;-77
2023/06/05 06:14:45;;;;;;;2.57;1.57;;;;;;;19.55;37.72;99107.44;4915444;29;42513;-79
2023/06/05 06:17:13;;;;;;;1.50;1.40;;;;;;;19.72;37.28;99114.72;4915706;29;42451;-79
2023/06/05 06:19:42;;;;;;;2.87;1.67;;;;;;;19.94;36.88;99118.03;4915626;29;39405;-81
2023/06/05 06:22:12;;;;;;;2.13;1.40;;;;;;;20.16;36.72;99123.00;4915777;29;40669;-80
2023/06/05 06:24:40;;;;;;;3.00;1.70;;;;;;;20.29;36.59;99117.25;4931797;28;42730;-80
2023/06/05 06:27:10;;;;;;;2.23;1.80;;;;;;;20.47;36.76;99120.03;4936144;28;41984;-83
2023/06/05 06:29:38;;;;;;;2.00;1.80;;;;;;;20.55;35.85;99112.88;4934694;28;40677;-79
2023/06/05 06:32:06;;;;;;;2.87;2.00;;;;;;;20.63;35.89;99109.44;4916810;29;41544;-78
2023/06/05 06:34:34;;;;;;;4.13;1.90;;;;;;;20.78;35.38;99126.72;4916356;29;41458;-78
2023/06/05 06:37:03;;;;;;;6.97;1.50;;;;;;;20.77;36.01;99084.69;4931947;29;42014;-77
2023/06/05 06:39:32;;;;;;;2.47;1.67;;;;;;;21.22;36.06;99126.81;4932094;28;40971;-79
2023/06/05 06:42:00;;;;;;;1.80;1.60;;;;;;;21.47;35.37;99134.06;4933442;29;41814;-78
2023/06/05 06:44:33;;;;;;;4.03;1.63;;;;;;;21.61;34.89;99141.56;4916256;29;41725;-79
2023/06/05 06:47:00;;;;;;;2.43;1.50;;;;;;;21.62;35.12;99131.63;4916259;29;41315;-79
2023/06/05 06:49:28;;;;;;;1.83;1.63;;;;;;;21.83;34.67;99135.63;4916255;29;38877;-78
2023/06/05 06:51:56;;;;;;;2.30;1.50;;;;;;;21.93;33.99;99142.75;4931735;29;41721;-79
2023/06/05 06:54:25;;;;;;;1.50;1.33;;;;;;;22.06;34.06;99138.63;4929881;28;43684;-77
2023/06/05 06:56:54;;;;;;;2.50;1.50;;;;;;;22.24;34.04;99140.41;4930806;29;42326;-78
2023/06/05 06:59:22;;;;;;;2.13;1.43;;;;;;;22.38;33.72;99142.44;4931087;28;40804;-79
2023/06/05 07:02:10;;;;;;;1.70;1.50;;;;;;;22.57;33.33;99145.72;4931204;29;41487;-80
2023/06/05 07:04:38;;;;;;;1.43;1.30;;;;;;;22.80;32.97;99142.44;4915308;29;41789;-80
2023/06/05 07:07:06;;;;;;;2.00;1.73;;;;;;;22.91;33.27;99123.19;4915528;29;41131;-81
2023/06/05 07:09:33;;;;;;;3.57;1.80;;;;;;;23.17;33.24;99147.34;4915235;29;39995;-78
2023/06/05 07:12:05;;;;;;;1.90;1.63;;;;;;;23.29;32.99;99138.72;4915089;29;40743;-78
2023/06/05 07:14:33;;;;;;;3.33;1.60;;;;;;;23.45;32.95;99147.84;4916575;29;41743;-79
2023/06/05 07:17:01;;;;;;;2.23;1.67;;;;;;;23.57;32.77;99149.22;4935171;29;42237;-78
2023/06/05 07:19:29;;;;;;;3.27;1.70;;;;;;;23.76;32.63;99148.84;4934441;28;38975;-78
2023/06/05 07:21:57;;;;;;;1.53;1.43;;;;;;;23.97;33.15;99138.31;4934467;28;40801;-78
2023/06/05 07:24:26;;;;;;;3.43;1.67;;;;;;;24.15;31.87;99145.34;4936161;28;43719;-80
2023/06/05 07:26:55;;;;;;;1.83;1.63;;;;;;;24.38;32.61;99131.88;4934887;29;41293;-83
2023/06/05 07:29:25;;;;;;;3.30;1.20;;;;;;;24.84;31.26;99141.78;4934806;28;39879;-77
2023/06/05 07:31:53;;;;;;;2.27;1.60;;;;;;;25.56;30.60;99128.66;4934791;29;42407;-77
2023/06/05 07:34:22;;;;;;;2.93;1.80;;;;;;;26.65;30.21;99141.47;4935999;28;42701;-76
2023/06/05 07:36:51;;;;;;;1.67;1.50;;;;;;;27.54;28.40;99150.97;4918935;29;41267;-79
2023/06/05 07:39:20;;;;;;;2.93;1.57;;;;;;;27.91;26.88;99168.00;4935507;28;40112;-78
2023/06/05 07:41:48;;;;;;;2.00;1.53;;;;;;;27.91;26.15;99173.44;4934611;29;42527;-79
2023/06/05 07:44:16;;;;;;;2.93;1.70;;;;;;;27.66;25.47;99178.50;4934732;28;42675;-77
2023/06/05 07:46:47;;;;;;;1.67;1.57;;;;;;;27.50;26.94;99160.53;4935748;29;41987;-77
2023/06/05 07:49:15;;;;;;;2.73;1.73;;;;;;;27.71;27.12;99156.13;4930067;28;39888;-80
2023/06/05 07:51:44;;;;;;;3.27;1.50;;;;;;;28.37;26.14;99172.91;4933300;29;40822;-79
2023/06/05 07:54:12;;;;;;;2.00;1.80;;;;;;;29.77;25.54;99176.59;4933481;28;41495;-78
2023/06/05 07:56:40;;;;;;;2.03;1.60;;;;;;;30.91;23.37;99162.44;4933706;29;43271;-86
2023/06/05 07:59:08;;;;;;;4.00;1.70;;;;;;;32.36;22.36;99189.50;4933900;28;40243;-83
2023/06/05 08:01:38;;;;;;;2.57;1.90;;;;;;;33.62;21.24;99198.78;4949150;28;41820;-83
2023/06/05 08:04:09;;;;;;;1.90;1.73;;;;;;;34.69;20.14;99204.88;4923983;29;42679;-86
2023/06/05 08:06:40;;;;;;;1.67;1.57;;;;;;;35.53;20.30;99206.81;4917933;29;42027;-85
2023/06/05 08:09:09;;;;;;;2.60;1.93;;;;;;;36.29;18.45;99198.97;4934001;28;40778;-85
2023/06/05 08:11:38;;;;;;;1.70;1.60;;;;;;;37.22;18.76;99197.13;4933819;29;41683;-82
2023/06/05 08:14:07;;;;;;;2.17;1.97;;;;;;;38.10;17.01;99221.44;4917696;29;41596;-82
2023/06/05 08:16:35;;;;;;;1.90;1.67;;;;;;;38.66;17.23;99216.28;4917855;29;40985;-87
2023/06/05 08:19:02;;;;;;;1.83;1.60;;;;;;;39.14;17.11;99208.69;4917704;29;39678;-87
2023/06/05 08:21:32;;;;;;;4.10;2.00;;;;;;;39.00;16.22;99215.84;4934675;29;42588;-83
2023/06/05 08:24:00;;;;;;;2.17;1.75;;;;;;;38.70;17.14;99209.06;4934016;28;42130;-78
2023/06/05 08:26:27;;;;;;;4.95;1.70;;;;;;;38.62;17.13;99206.81;4933542;29;42390;-78
2023/06/05 08:28:54;;;;;;;2.25;2.05;;;;;;;38.74;17.14;99204.66;4917832;29;38948;-77
2023/06/05 08:31:23;;;;;;;3.85;2.17;;;;;;;38.76;16.87;99205.22;4918066;29;41692;-76
2023/06/05 08:33:51;;;;;;;2.05;1.85;;;;;;;38.75;16.77;99200.78;4934722;28;42894;-76
2023/06/05 08:36:18;;;;;;;4.70;1.80;;;;;;;38.77;17.81;99187.50;4934264;29;42301;-81
2023/06/05 08:38:47;;;;;;;1.80;1.70;;;;;;;38.87;16.68;99192.25;4918007;29;38951;-81
2023/06/05 08:41:18;;;;;;;4.47;1.65;;;;;;;39.00;16.75;99177.06;4934527;29;20690;-81
2023/06/05 08:43:46;;;;;;;1.88;1.77;;;;;;;38.68;16.31;99189.16;4933788;28;42796;-82
2023/06/05 08:46:15;;;;;;;2.67;1.88;;;;;;;37.98;17.05;99168.22;4918150;29;41211;-82
2023/06/05 08:48:45;;;;;;;2.03;1.55;;;;;;;37.21;17.47;99185.25;4933624;28;39140;-77
2023/06/05 08:51:15;;;;;;;2.92;2.00;;;;;;;36.60;17.55;99184.47;4917629;29;40660;-80
2023/06/05 08:53:45;;;;;;;1.70;1.60;;;;;;;36.27;17.68;99168.88;4931677;28;43898;-83
2023/06/05 08:56:15;;;;;;;2.05;1.95;;;;;;;36.19;18.76;99176.75;4934075;29;42216;-78
2023/06/05 08:58:45;;;;;;;3.03;1.97;;;;;;;35.47;18.36;99140.88;4933732;28;40986;-79
2023/06/05 09:01:12;;;;;;;2.13;1.93;;;;;;;35.17;19.46;99150.25;4916814;29;40864;-80
2023/06/05 09:03:40;;;;;;;3.07;2.20;;;;;;;35.17;18.36;99172.28;4933680;28;42406;-80
2023/06/05 09:06:10;;;;;;;3.43;2.13;;;;;;;34.85;18.50;99165.59;4932224;29;41009;-83
2023/06/05 09:08:39;;;;;;;2.17;1.97;;;;;;;34.90;18.62;99173.94;4932656;28;40281;-83
2023/06/05 09:11:27;;;;;;;1.87;1.77;;;;;;;34.89;18.43;99166.75;4932481;29;40397;-78
2023/06/05 09:13:56;;;;;;;2.10;1.90;;;;;;;34.62;19.30;99166.47;4931584;28;43735;-79
2023/06/05 09:16:34;;;;;;;2.10;1.90;;;;;;;34.75;19.65;99144.16;4932538;29;42282;-79
2023/06/05 09:19:02;;;;;;;2.33;2.00;;;;;;;35.16;18.43;99165.09;4929978;28;40923;-87
2023/06/05 09:21:32;;;;;;;2.30;1.90;;;;;;;35.05;17.23;99182.50;4932779;29;40834;-87
2023/06/05 09:24:17;;;;;;;2.30;1.97;;;;;;;34.75;17.04;99170.84;4917713;29;41605;-88
2023/06/05 09:26:51;;;;;;;1.97;1.77;;;;;;;34.60;18.29;99149.41;4933707;29;42564;-84
2023/06/05 09:29:24;;;;;;;2.97;1.87;;;;;;;34.39;17.49;99174.78;4917886;29;39103;-84
2023/06/05 09:31:55;;;;;;;2.47;2.00;;;;;;;34.58;17.92;99177.16;4933944;28;40976;-82
2023/06/05 09:34:27;;;;;;;3.03;2.10;;;;;;;35.76;17.16;99164.50;4931769;28;42672;-79
2023/06/05 09:36:57;;;;;;;2.50;1.83;;;;;;;36.91;16.31;99165.56;4916885;29;42514;-88
2023/06/05 09:39:26;;;;;;;2.37;2.07;;;;;;;37.29;14.76;99187.53;4933578;28;39326;-88
2023/06/05 09:41:56;;;;;;;2.30;2.10;;;;;;;37.73;16.17;99162.50;4917874;29;41780;-85
2023/06/05 09:44:25;;;;;;;3.15;2.17;;;;;;;38.80;15.12;99173.13;4917370;29;41676;-78
2023/06/05 09:46:54;;;;;;;1.95;1.75;;;;;;;39.57;13.62;99173.28;4933758;29;43271;-83
2023/06/05 09:49:25;;;;;;;3.08;2.05;;;;;;;40.29;13.56;99180.47;4932358;28;38906;-79
2023/06/05 09:51:57;;;;;;;2.22;2.03;;;;;;;41.13;12.14;99185.16;4932129;29;41996;-83
2023/06/05 09:54:28;;;;;;;3.45;1.85;;;;;;;41.66;12.67;99182.56;4915295;29;43199;-80
2023/06/05 09:57:00;;;;;;;2.00;1.75;;;;;;;42.19;12.89;99153.66;4931263;29;42272;-79
2023/06/05 09:59:29;;;;;;;3.17;1.98;;;;;;;42.07;13.16;99155.19;4942369;28;42144;-79
2023/06/05 10:01:59;;;;;;;1.75;1.60;;;;;;;41.25;13.90;99157.81;4950714;28;40826;-78
2023/06/05 10:04:29;;;;;;;2.30;2.03;;;;;;;40.30;15.02;99148.84;4934587;28;43500;-81
2023/06/05 10:07:02;;;;;;;3.80;1.85;;;;;;;39.28;14.58;99153.59;4915227;29;41400;-76
2023/06/05 10:09:31;;;;;;;1.80;1.70;;;;;;;38.08;14.51;99151.72;4928104;28;39863;-78
2023/06/05 10:12:04;;;;;;;2.20;1.98;;;;;;;37.11;14.52;99157.47;4931408;29;40973;-77
2023/06/05 10:14:32;;;;;;;2.90;2.00;;;;;;;36.43;16.05;99145.09;4929818;28;43027;-77
2023/06/05 10:17:05;;;;;;;2.33;1.88;;;;;;;36.56;16.16;99139.19;4931172;29;43225;-78
2023/06/05 10:19:34;;;;;;;3.17;2.10;;;;;;;36.75;16.45;99116.78;4929272;28;39710;-76
2023/06/05 10:22:02;;;;;;;2.45;2.10;;;;;;;36.75;16.00;99130.59;4930593;29;40681;-77
2023/06/05 10:24:33;;;;;;;2.10;2.00;;;;;;;36.46;16.25;99130.78;4931816;28;43182;-76
2023/06/05 10:27:43;;;;;;;3.25;2.15;;;;;;;36.30;16.81;99123.41;4932157;29;42327;-79
2023/06/05 10:30:35;;;;;;;1.80;1.70;;;;;;;36.31;16.21;99130.59;4916826;29;40143;-78
2023/06/05 10:33:12;;;;;;;2.08;1.88;;;;;;;36.21;16.87;99108.38;4915870;29;41773;-80
2023/06/05 10:35:50;;;;;;;2.40;2.05;;;;;;;36.14;17.18;99110.47;4932637;29;42893;-76
2023/06/05 10:38:21;;;;;;;3.03;2.08;;;;;;;36.00;16.80;99124.63;4911259;29;43006;-76
2023/06/05 10:40:53;;;;;;;2.03;1.92;;;;;;;35.95;16.37;99124.56;4911415;29;39185;-79
2023/06/05 10:43:31;;;;;;;4.22;2.42;;;;;;;35.83;18.53;99106.47;4929498;29;41766;-78
2023/06/05 10:46:00;;;;;;;2.30;2.10;;;;;;;35.84;18.87;99088.84;4908929;29;41713;-80
2023/06/05 10:49:05;;;;;;;3.53;2.00;;;;;;;35.60;17.39;99107.47;4933808;29;43635;-82
2023/06/05 10:51:33;;;;;;;2.50;2.30;;;;;;;35.29;18.43;99095.94;4933545;28;40895;-83
2023/06/05 10:54:03;;;;;;;2.20;2.10;;;;;;;35.12;17.45;99100.56;4918312;29;40581;-79
2023/06/05 10:56:56;;;;;;;4.90;2.03;;;;;;;35.11;17.77;99098.94;4918199;29;42781;-77
2023/06/05 10:59:27;;;;;;;3.70;1.97;;;;;;;35.05;18.62;99094.41;4934699;29;41831;-80
2023/06/05 11:02:26;;;;;;;2.93;2.10;;;;;;;35.11;19.27;99082.41;4899537;29;38965;-78
2023/06/05 11:05:08;;;;;;;3.40;2.10;;;;;;;34.98;16.27;99101.16;4919353;28;41775;-81
2023/06/05 11:07:37;;;;;;;1.97;1.87;;;;;;;34.44;17.57;99060.22;4924242;28;41504;-83
2023/06/05 11:10:06;;;;;;;3.33;2.27;;;;;;;34.64;19.10;99086.44;4952806;28;41529;-77
2023/06/05 11:13:02;;;;;;;3.70;2.37;;;;;;;34.48;17.31;99108.19;4948557;28;40742;-78
2023/06/05 11:15:40;;;;;;;3.43;2.57;;;;;;;34.36;17.33;99095.53;4932176;29;42873;-81
2023/06/05 11:18:27;;;;;;;4.60;2.27;;;;;;;34.22;19.57;99073.78;4930289;28;41755;-85
2023/06/05 11:20:55;;;;;;;2.50;2.30;;;;;;;34.20;19.72;99053.09;4918783;29;41392;-85
2023/06/05 11:23:27;;;;;;;2.67;2.30;;;;;;;34.38;19.41;99066.69;4919011;29;40445;-84
2023/06/05 11:25:58;;;;;;;2.50;2.30;;;;;;;34.57;20.31;99062.69;4932796;28;42638;-84
2023/06/05 11:28:39;;;;;;;2.40;2.17;;;;;;;34.67;20.07;99058.44;4935713;28;41832;-82
2023/06/05 11:31:09;;;;;;;2.37;2.10;;;;;;;34.73;18.71;99068.47;4934891;28;42471;-82
2023/06/05 11:33:36;;;;;;;2.50;2.30;;;;;;;34.76;17.19;99068.81;4919138;29;39178;-83
2023/06/05 11:36:08;;;;;;;2.30;2.10;;;;;;;34.83;18.19;99063.19;4917074;29;41398;-82
2023/06/05 11:38:36;;;;;;;3.40;2.40;;;;;;;35.05;19.22;99055.03;4933873;28;42058;-80
2023/06/05 11:41:09;;;;;;;3.23;2.30;;;;;;;35.12;17.23;99055.69;4933533;28;41907;-86
2023/06/05 11:43:43;;;;;;;5.00;2.77;;;;;;;35.35;17.77;99060.25;4935342;28;41705;-83
2023/06/05 11:46:13;;;;;;;4.77;2.20;;;;;;;35.54;17.75;99042.34;4932616;28;41896;-84
2023/06/05 11:48:46;;;;;;;3.97;2.40;;;;;;;35.96;17.56;99045.44;4918097;29;42873;-82
2023/06/05 11:51:13;;;;;;;2.80;2.60;;;;;;;36.41;16.78;99016.78;4918325;29;40360;-80